aviador You're here:

LBSF Decoded Metar

SOFIA in BULGARIA
Report Time2017-08-24 06:30:00
UTC Time2017-08-24 06:59:51
Flight Rules vfr VFR
WindVRB at 01 kt
Visibility9999 m
Phenomena:N/A
Clouds:N/A
Expected CloudBase > 3,200 ft AGL from Temp-Dew spread
CeilingNone
Temp15°C (ISA +4)
Dew Point07°C (59% RH)
AAT14.0°C
QNH1023 hPa
Density Alt2,215 ft
Elevation1,952 ft
Report Wrong Elevation
Raw Report
METAR LBSF 240630Z VRB01KT CAVOK 15/07 Q1023 NOSIG=

Extra information for LBSF:More info

Metar Taf Metar & Taf Last 4 Metars F.Rules Stats Wind Profile Meteogram Temp Stats Airport Information Weather charts Add Link Nearby VenuesMetar ALERT Operation Metar Decoded Social comments